createdAt,value
2022-10-12T00:03:37.110Z,11.29
2022-10-12T00:10:42.151Z,11.24
2022-10-12T00:17:43.697Z,11.22
2022-10-12T00:24:45.239Z,11.15
2022-10-12T00:31:46.786Z,11.06
2022-10-12T00:38:48.809Z,11.03
2022-10-12T00:45:50.381Z,10.96
2022-10-12T00:53:12.817Z,10.95
2022-10-12T01:00:14.786Z,10.89
2022-10-12T01:07:16.350Z,10.82
2022-10-12T01:14:17.884Z,10.72
2022-10-12T01:21:20.814Z,10.68
2022-10-12T01:28:44.045Z,10.67
2022-10-12T01:35:51.370Z,10.61
2022-10-12T01:42:52.940Z,10.54
2022-10-12T01:49:54.502Z,10.48
2022-10-12T01:57:31.214Z,10.41
2022-10-12T02:04:47.845Z,10.37
2022-10-12T02:11:50.203Z,10.31
2022-10-12T02:18:53.043Z,10.23
2022-10-12T02:25:54.628Z,10.20
2022-10-12T02:33:03.630Z,10.18
2022-10-12T02:40:20.011Z,10.12
2022-10-12T02:47:22.376Z,10.05
2022-10-12T02:54:23.990Z,9.98
2022-10-12T03:01:25.610Z,9.94
2022-10-12T03:08:27.173Z,9.91
2022-10-12T03:15:28.773Z,9.89
2022-10-12T03:22:30.660Z,9.86
2022-10-12T03:29:32.204Z,9.86
2022-10-12T03:36:33.795Z,9.82
2022-10-12T03:43:35.338Z,9.78
2022-10-12T03:50:36.955Z,9.76
2022-10-12T03:57:38.745Z,9.71
2022-10-12T04:04:40.520Z,9.64
2022-10-12T04:11:42.097Z,9.57
2022-10-12T04:18:43.727Z,9.47
2022-10-12T04:25:45.249Z,9.43
2022-10-12T04:32:46.789Z,9.40
2022-10-12T04:39:48.362Z,9.39
2022-10-12T04:46:50.159Z,9.35
2022-10-12T04:53:51.780Z,9.31
2022-10-12T05:00:53.302Z,9.32
2022-10-12T05:07:55.021Z,9.36
2022-10-12T05:14:56.615Z,9.37
2022-10-12T05:21:58.174Z,9.35
2022-10-12T05:28:59.825Z,9.35
2022-10-12T05:36:01.389Z,9.34
2022-10-12T05:43:02.956Z,9.33
2022-10-12T05:50:04.844Z,9.36
2022-10-12T05:57:06.423Z,9.30
2022-10-12T06:04:08.007Z,9.31
2022-10-12T06:11:09.567Z,9.37
2022-10-12T06:18:11.112Z,9.46
2022-10-12T06:25:12.681Z,9.57
2022-10-12T06:32:14.320Z,9.64
2022-10-12T06:39:15.879Z,9.69
2022-10-12T06:46:17.442Z,9.93
2022-10-12T06:53:19.441Z,10.19
2022-10-12T07:00:21.061Z,10.50
2022-10-12T07:07:22.621Z,10.85
2022-10-12T07:14:24.201Z,11.21
2022-10-12T07:21:25.893Z,11.52
2022-10-12T07:28:28.644Z,12.19
2022-10-12T07:35:30.377Z,12.62
2022-10-12T07:42:31.961Z,13.09
2022-10-12T07:49:33.548Z,13.62
2022-10-12T07:56:35.186Z,14.03
2022-10-12T08:03:36.999Z,14.39
2022-10-12T08:10:38.543Z,14.94
2022-10-12T08:17:40.551Z,15.48
2022-10-12T08:24:42.463Z,16.00
2022-10-12T08:31:44.040Z,16.44
2022-10-12T08:38:54.008Z,16.57
2022-10-12T08:45:58.868Z,17.13
2022-10-12T08:53:05.183Z,17.22
2022-10-12T09:00:09.916Z,17.96
2022-10-12T09:07:31.397Z,18.07
2022-10-12T09:14:34.143Z,18.79
2022-10-12T09:21:35.755Z,19.36
2022-10-12T09:28:45.283Z,19.94
2022-10-12T09:35:47.345Z,20.47
2022-10-12T09:42:48.927Z,21.08
2022-10-12T09:49:51.969Z,21.37
2022-10-12T09:56:55.171Z,22.31
2022-10-12T10:04:23.930Z,22.36
2022-10-12T10:11:27.227Z,23.11
2022-10-12T10:18:34.031Z,23.75
2022-10-12T10:25:35.637Z,24.32
2022-10-12T10:32:37.189Z,24.83
2022-10-12T10:39:46.534Z,25.28
2022-10-12T10:46:48.087Z,25.52
2022-10-12T10:53:51.278Z,25.35
2022-10-12T11:00:53.518Z,26.08
2022-10-12T11:07:56.645Z,26.09
2022-10-12T11:15:35.738Z,26.50
2022-10-12T11:22:49.169Z,26.82
2022-10-12T11:30:08.501Z,26.20
2022-10-12T11:37:20.962Z,25.78
2022-10-12T11:44:41.348Z,24.94
2022-10-12T11:51:47.321Z,25.05
2022-10-12T11:59:00.417Z,24.98
2022-10-12T12:06:42.158Z,23.53
2022-10-12T12:13:43.724Z,24.06
2022-10-12T12:20:45.311Z,24.82
2022-10-12T12:27:47.846Z,25.09
2022-10-12T12:35:00.479Z,24.85
2022-10-12T12:42:11.939Z,24.79
2022-10-12T12:49:40.408Z,23.65
2022-10-12T12:56:45.121Z,22.72
2022-10-12T13:04:00.754Z,22.28
2022-10-12T13:11:02.291Z,21.96
2022-10-12T13:18:48.851Z,21.46
2022-10-12T13:25:56.955Z,21.16
2022-10-12T13:33:04.327Z,20.93
2022-10-12T13:40:06.339Z,20.68
2022-10-12T13:47:41.713Z,20.55
2022-10-12T13:54:46.091Z,20.24
2022-10-12T14:01:55.075Z,20.13
2022-10-12T14:09:06.189Z,20.07
2022-10-12T14:16:07.744Z,19.96
2022-10-12T14:23:15.943Z,19.86
2022-10-12T14:30:18.757Z,19.59
2022-10-12T14:37:24.033Z,19.59
2022-10-12T14:44:27.025Z,19.44
2022-10-12T14:51:28.815Z,19.07
2022-10-12T14:58:30.441Z,18.98
2022-10-12T15:05:32.828Z,18.86
2022-10-12T15:12:34.515Z,18.75
2022-10-12T15:19:36.144Z,18.65
2022-10-12T15:26:42.076Z,18.65
2022-10-12T15:33:43.966Z,18.57
2022-10-12T15:40:46.170Z,18.39
2022-10-12T15:47:48.133Z,18.30
2022-10-12T15:54:49.909Z,18.20
2022-10-12T16:01:51.453Z,18.19
2022-10-12T16:08:53.059Z,18.17
2022-10-12T16:15:54.595Z,18.09
2022-10-12T16:22:56.147Z,17.96
2022-10-12T16:29:57.840Z,17.82
2022-10-12T16:37:00.236Z,17.72
2022-10-12T16:44:01.905Z,17.60
2022-10-12T16:51:08.217Z,17.49
2022-10-12T16:58:09.788Z,17.35
2022-10-12T17:05:11.370Z,17.21
2022-10-12T17:12:13.206Z,17.05
2022-10-12T17:19:27.427Z,16.92
2022-10-12T17:26:29.127Z,16.78
2022-10-12T17:33:31.509Z,16.66
2022-10-12T17:40:33.051Z,16.50
2022-10-12T17:47:34.685Z,16.43
2022-10-12T17:54:36.814Z,16.35
2022-10-12T18:01:38.910Z,16.22
2022-10-12T18:08:40.536Z,16.13
2022-10-12T18:15:43.507Z,16.04
2022-10-12T18:22:45.095Z,15.93
2022-10-12T18:29:47.119Z,15.84
2022-10-12T18:36:48.752Z,15.75
2022-10-12T18:43:55.114Z,15.62
2022-10-12T18:50:57.483Z,15.55
2022-10-12T18:57:59.058Z,15.36
2022-10-12T19:05:00.603Z,15.31
2022-10-12T19:12:02.251Z,15.27
2022-10-12T19:19:06.107Z,15.12
2022-10-12T19:26:18.962Z,15.05
2022-10-12T19:33:20.924Z,14.99
2022-10-12T19:40:22.505Z,14.81
2022-10-12T19:47:24.138Z,14.64
2022-10-12T19:54:25.773Z,14.53
2022-10-12T20:01:37.137Z,14.46
2022-10-12T20:08:39.665Z,14.41
2022-10-12T20:15:41.278Z,14.26
2022-10-12T20:22:42.831Z,14.22
2022-10-12T20:29:44.509Z,14.21
2022-10-12T20:36:46.123Z,14.09
2022-10-12T20:43:47.732Z,14.02
2022-10-12T20:50:49.317Z,13.93
2022-10-12T20:57:50.880Z,13.80
2022-10-12T21:04:52.444Z,13.64
2022-10-12T21:11:54.128Z,13.55
2022-10-12T21:18:55.783Z,13.60
2022-10-12T21:25:57.414Z,13.56
2022-10-12T21:32:58.951Z,13.46
2022-10-12T21:40:00.543Z,13.41
2022-10-12T21:47:02.087Z,13.32
2022-10-12T21:54:04.786Z,13.27
2022-10-12T22:01:07.836Z,13.12
2022-10-12T22:08:09.700Z,13.01
2022-10-12T22:15:11.788Z,12.90
2022-10-12T22:22:13.344Z,12.78
2022-10-12T22:29:14.986Z,12.67
2022-10-12T22:36:16.788Z,12.59
2022-10-12T22:43:18.448Z,12.49
2022-10-12T22:50:20.051Z,12.43
2022-10-12T22:57:21.688Z,12.36
2022-10-12T23:04:23.249Z,12.27
2022-10-12T23:11:26.330Z,12.20
2022-10-12T23:18:28.075Z,12.11
2022-10-12T23:25:29.623Z,12.04
2022-10-12T23:32:31.417Z,11.97
2022-10-12T23:39:33.023Z,11.93
2022-10-12T23:46:34.593Z,11.90
2022-10-12T23:53:36.523Z,11.84
